createdAt,value
2022-11-27T00:01:19.904Z,3.65
2022-11-27T00:03:46.751Z,3.63
2022-11-27T00:06:16.098Z,3.59
2022-11-27T00:08:44.461Z,3.62
2022-11-27T00:11:17.232Z,3.67
2022-11-27T00:13:45.671Z,3.61
2022-11-27T00:16:13.368Z,3.72
2022-11-27T00:18:40.689Z,3.63
2022-11-27T00:21:13.289Z,3.58
2022-11-27T00:23:40.129Z,3.60
2022-11-27T00:26:07.651Z,3.40
2022-11-27T00:28:34.893Z,3.31
2022-11-27T00:31:03.988Z,3.22
2022-11-27T00:33:31.305Z,3.18
2022-11-27T00:36:02.656Z,3.15
2022-11-27T00:38:29.386Z,3.08
2022-11-27T00:41:00.339Z,2.99
2022-11-27T00:43:27.055Z,2.93
2022-11-27T00:45:53.684Z,2.81
2022-11-27T00:48:20.604Z,2.90
2022-11-27T00:50:47.244Z,2.89
2022-11-27T00:53:13.904Z,2.80
2022-11-27T00:55:40.548Z,2.83
2022-11-27T00:58:07.229Z,2.67
2022-11-27T01:00:33.845Z,2.73
2022-11-27T01:03:00.526Z,2.72
2022-11-27T01:05:27.211Z,2.63
2022-11-27T01:07:53.863Z,2.56
2022-11-27T01:10:20.529Z,2.57
2022-11-27T01:12:50.099Z,2.45
2022-11-27T01:15:16.834Z,2.48
2022-11-27T01:17:46.735Z,2.36
2022-11-27T01:20:13.483Z,2.24
2022-11-27T01:22:40.141Z,2.29
2022-11-27T01:25:07.842Z,2.31
2022-11-27T01:27:34.463Z,2.32
2022-11-27T01:30:01.127Z,2.33
2022-11-27T01:32:27.729Z,2.30
2022-11-27T01:34:54.644Z,2.35
2022-11-27T01:37:21.304Z,2.21
2022-11-27T01:39:47.930Z,2.13
2022-11-27T01:42:14.582Z,2.13
2022-11-27T01:44:49.316Z,2.16
2022-11-27T01:47:27.904Z,2.11
2022-11-27T01:50:00.592Z,2.10
2022-11-27T01:52:31.900Z,2.13
2022-11-27T01:55:04.419Z,2.16
2022-11-27T01:57:36.216Z,2.08
2022-11-27T02:00:05.795Z,2.04
2022-11-27T02:02:32.480Z,1.91
2022-11-27T02:04:59.279Z,1.92
2022-11-27T02:07:26.346Z,1.88
2022-11-27T02:09:53.201Z,1.81
2022-11-27T02:12:35.225Z,1.70
2022-11-27T02:15:23.503Z,1.61
2022-11-27T02:18:00.229Z,1.56
2022-11-27T02:21:01.574Z,1.52
2022-11-27T02:23:43.598Z,1.59
2022-11-27T02:26:20.863Z,1.64
2022-11-27T02:29:04.119Z,1.66
2022-11-27T02:31:31.836Z,1.54
2022-11-27T02:34:08.683Z,1.54
2022-11-27T02:36:37.881Z,1.53
2022-11-27T02:39:11.957Z,1.30
2022-11-27T02:41:45.221Z,1.37
2022-11-27T02:44:13.107Z,1.33
2022-11-27T02:46:41.972Z,1.38
2022-11-27T02:49:16.743Z,1.42
2022-11-27T02:51:53.673Z,1.42
2022-11-27T02:54:26.052Z,1.41
2022-11-27T02:56:55.259Z,1.31
2022-11-27T02:59:24.649Z,1.30
2022-11-27T03:01:59.446Z,1.47
2022-11-27T03:04:34.434Z,1.49
2022-11-27T03:07:07.118Z,1.54
2022-11-27T03:09:39.638Z,1.60
2022-11-27T03:12:09.011Z,1.64
2022-11-27T03:14:38.740Z,1.67
2022-11-27T03:17:20.786Z,1.48
2022-11-27T03:20:22.609Z,1.56
2022-11-27T03:22:49.313Z,1.65
2022-11-27T03:25:16.584Z,1.59
2022-11-27T03:27:54.169Z,1.63
2022-11-27T03:30:20.897Z,1.63
2022-11-27T03:32:47.825Z,1.67
2022-11-27T03:35:18.876Z,1.71
2022-11-27T03:37:46.179Z,1.71
2022-11-27T03:40:13.707Z,1.74
2022-11-27T03:43:03.737Z,1.76
2022-11-27T03:45:45.754Z,1.78
2022-11-27T03:48:28.658Z,1.79
2022-11-27T03:51:30.464Z,1.69
2022-11-27T03:54:12.236Z,1.71
2022-11-27T03:56:55.041Z,1.67
2022-11-27T03:59:27.657Z,1.78
2022-11-27T04:01:54.409Z,1.80
2022-11-27T04:04:21.186Z,1.75
2022-11-27T04:06:47.932Z,1.69
2022-11-27T04:09:14.593Z,1.69
2022-11-27T04:11:41.234Z,1.75
2022-11-27T04:14:07.898Z,1.79
2022-11-27T04:16:34.630Z,1.82
2022-11-27T04:19:01.269Z,1.88
2022-11-27T04:21:27.939Z,1.93
2022-11-27T04:23:54.603Z,1.97
2022-11-27T04:26:23.516Z,1.99
2022-11-27T04:28:50.198Z,2.03
2022-11-27T04:31:17.454Z,2.07
2022-11-27T04:33:44.206Z,2.07
2022-11-27T04:36:10.849Z,2.05
2022-11-27T04:38:37.506Z,2.07
2022-11-27T04:41:04.223Z,2.07
2022-11-27T04:43:30.803Z,2.11
2022-11-27T04:45:57.465Z,2.12
2022-11-27T04:48:24.074Z,2.09
2022-11-27T04:50:50.725Z,2.07
2022-11-27T04:53:17.368Z,2.09
2022-11-27T04:55:44.039Z,2.13
2022-11-27T04:58:10.705Z,2.16
2022-11-27T05:00:37.415Z,2.16
2022-11-27T05:03:04.217Z,2.20
2022-11-27T05:05:30.927Z,2.17
2022-11-27T05:07:57.663Z,2.39
2022-11-27T05:10:24.375Z,2.36
2022-11-27T05:12:51.242Z,2.31
2022-11-27T05:15:17.886Z,2.29
2022-11-27T05:17:44.631Z,2.29
2022-11-27T05:20:14.596Z,2.31
2022-11-27T05:22:41.255Z,2.30
2022-11-27T05:25:08.284Z,2.31
2022-11-27T05:27:35.366Z,2.40
2022-11-27T05:30:01.997Z,2.34
2022-11-27T05:32:28.632Z,2.51
2022-11-27T05:34:55.269Z,2.72
2022-11-27T05:37:21.969Z,2.58
2022-11-27T05:39:48.614Z,2.63
2022-11-27T05:42:15.259Z,2.56
2022-11-27T05:44:42.106Z,2.61
2022-11-27T05:47:08.995Z,2.46
2022-11-27T05:49:35.772Z,2.47
2022-11-27T05:52:02.622Z,2.46
2022-11-27T05:54:29.275Z,2.47
2022-11-27T05:56:55.893Z,2.52
2022-11-27T05:59:22.654Z,2.65
2022-11-27T06:01:49.652Z,2.60
2022-11-27T06:04:16.697Z,2.56
2022-11-27T06:06:43.417Z,2.53
2022-11-27T06:09:13.238Z,2.53
2022-11-27T06:11:41.443Z,2.50
2022-11-27T06:14:10.180Z,2.63
2022-11-27T06:16:37.196Z,2.57
2022-11-27T06:19:04.043Z,2.55
2022-11-27T06:21:30.708Z,2.55
2022-11-27T06:23:57.708Z,2.68
2022-11-27T06:26:27.752Z,2.59
2022-11-27T06:28:56.172Z,2.55
2022-11-27T06:31:25.759Z,2.59
2022-11-27T06:33:54.171Z,2.55
2022-11-27T06:36:24.335Z,2.56
2022-11-27T06:38:51.269Z,2.59
2022-11-27T06:41:20.273Z,2.64
2022-11-27T06:43:47.633Z,2.66
2022-11-27T06:46:16.846Z,2.65
2022-11-27T06:48:45.004Z,2.65
2022-11-27T06:51:14.239Z,2.66
2022-11-27T06:53:40.973Z,2.68
2022-11-27T06:56:10.942Z,2.66
2022-11-27T06:58:37.855Z,2.71
2022-11-27T07:01:08.465Z,2.72
2022-11-27T07:03:35.378Z,2.71
2022-11-27T07:06:04.678Z,2.70
2022-11-27T07:08:32.498Z,2.71
2022-11-27T07:11:05.546Z,2.71
2022-11-27T07:13:32.714Z,2.71
2022-11-27T07:16:01.984Z,2.73
2022-11-27T07:18:30.676Z,2.72
2022-11-27T07:20:57.564Z,2.72
2022-11-27T07:23:24.178Z,2.75
2022-11-27T07:25:50.810Z,2.74
2022-11-27T07:28:18.994Z,2.77
2022-11-27T07:30:46.119Z,2.75
2022-11-27T07:33:12.841Z,2.73
2022-11-27T07:35:39.496Z,2.78
2022-11-27T07:38:06.133Z,2.78
2022-11-27T07:40:32.727Z,2.83
2022-11-27T07:42:59.599Z,2.78
2022-11-27T07:45:26.430Z,2.80
2022-11-27T07:47:53.112Z,2.82
2022-11-27T07:50:19.836Z,2.82
2022-11-27T07:52:46.567Z,2.81
2022-11-27T07:55:13.318Z,2.82
2022-11-27T07:57:40.095Z,2.88
2022-11-27T08:00:07.415Z,2.88
2022-11-27T08:02:34.015Z,2.89
2022-11-27T08:05:00.758Z,2.89
2022-11-27T08:07:29.898Z,2.88
2022-11-27T08:09:58.417Z,2.88
2022-11-27T08:12:25.517Z,2.87
2022-11-27T08:14:52.440Z,2.84
2022-11-27T08:17:19.392Z,2.88
2022-11-27T08:19:46.368Z,2.83
2022-11-27T08:22:14.137Z,2.84
2022-11-27T08:24:42.578Z,2.83
2022-11-27T08:27:10.546Z,2.87
2022-11-27T08:29:38.460Z,2.90
2022-11-27T08:32:05.872Z,2.90
2022-11-27T08:34:33.123Z,2.92
2022-11-27T08:36:59.795Z,2.87
2022-11-27T08:39:27.122Z,2.85
2022-11-27T08:41:54.438Z,2.86
2022-11-27T08:44:21.303Z,2.86
2022-11-27T08:46:47.970Z,2.87
2022-11-27T08:49:14.642Z,2.85
2022-11-27T08:51:43.798Z,2.91
2022-11-27T08:54:10.484Z,2.85
2022-11-27T08:56:37.124Z,2.78
2022-11-27T08:59:03.861Z,2.78
2022-11-27T09:01:32.472Z,2.80
2022-11-27T09:03:59.978Z,2.80
2022-11-27T09:06:30.255Z,2.81
2022-11-27T09:08:59.920Z,2.77
2022-11-27T09:11:28.562Z,2.74
2022-11-27T09:13:55.688Z,2.75
2022-11-27T09:16:23.027Z,2.68
2022-11-27T09:18:51.651Z,2.70
2022-11-27T09:21:24.138Z,2.72
2022-11-27T09:23:55.621Z,2.73
2022-11-27T09:26:25.524Z,2.71
2022-11-27T09:28:53.733Z,2.75
2022-11-27T09:31:21.516Z,2.74
2022-11-27T09:33:48.817Z,2.76
2022-11-27T09:36:19.637Z,2.77
2022-11-27T09:38:46.341Z,2.74
2022-11-27T09:41:40.542Z,2.74
2022-11-27T09:44:31.286Z,2.78
2022-11-27T09:47:04.833Z,2.79
2022-11-27T09:49:39.730Z,2.86
2022-11-27T09:52:31.111Z,2.84
2022-11-27T09:55:02.492Z,2.89
2022-11-27T09:57:35.416Z,2.86
2022-11-27T10:00:19.193Z,2.94
2022-11-27T10:02:46.582Z,2.94
2022-11-27T10:05:26.611Z,2.92
2022-11-27T10:08:17.770Z,2.96
2022-11-27T10:10:52.817Z,2.96
2022-11-27T10:13:29.830Z,2.99
2022-11-27T10:16:19.988Z,2.98
2022-11-27T10:18:54.170Z,2.94
2022-11-27T10:21:27.508Z,2.98
2022-11-27T10:24:04.764Z,2.98
2022-11-27T10:26:40.794Z,2.97
2022-11-27T10:29:29.964Z,3.04
2022-11-27T10:32:01.809Z,3.02
2022-11-27T10:34:39.974Z,3.01
2022-11-27T10:37:25.586Z,3.03
2022-11-27T10:40:01.435Z,3.05
2022-11-27T10:42:36.505Z,3.05
2022-11-27T10:45:06.824Z,2.97
2022-11-27T10:47:34.329Z,2.98
2022-11-27T10:50:01.112Z,3.02
2022-11-27T10:52:27.803Z,3.03
2022-11-27T10:54:59.319Z,3.01
2022-11-27T10:57:47.593Z,3.04
2022-11-27T11:00:23.972Z,3.06
2022-11-27T11:02:59.924Z,3.08
2022-11-27T11:05:50.960Z,3.10
2022-11-27T11:08:17.984Z,3.11
2022-11-27T11:10:53.115Z,3.13
2022-11-27T11:13:23.743Z,3.15
2022-11-27T11:15:53.150Z,3.12
2022-11-27T11:18:24.257Z,3.16
2022-11-27T11:20:54.660Z,3.17
2022-11-27T11:23:26.140Z,3.24
2022-11-27T11:25:57.204Z,3.20
2022-11-27T11:28:24.839Z,3.22
2022-11-27T11:30:56.163Z,3.25
2022-11-27T11:33:23.067Z,3.27
2022-11-27T11:35:55.720Z,3.32
2022-11-27T11:38:30.177Z,3.29
2022-11-27T11:41:03.282Z,3.30
2022-11-27T11:43:34.317Z,3.31
2022-11-27T11:46:18.728Z,3.37
2022-11-27T11:49:02.470Z,3.39
2022-11-27T11:51:51.568Z,3.42
2022-11-27T11:54:34.402Z,3.45
2022-11-27T11:57:05.710Z,3.49
2022-11-27T11:59:53.707Z,3.48
2022-11-27T12:02:44.282Z,3.48
2022-11-27T12:05:19.232Z,3.46
2022-11-27T12:08:02.273Z,3.51
2022-11-27T12:10:49.059Z,3.53
2022-11-27T12:13:31.646Z,3.54
2022-11-27T12:16:19.194Z,3.61
2022-11-27T12:18:55.971Z,3.62
2022-11-27T12:21:44.341Z,3.59
2022-11-27T12:24:36.348Z,3.72
2022-11-27T12:27:21.355Z,3.70
2022-11-27T12:30:10.494Z,3.78
2022-11-27T12:33:08.145Z,3.87
2022-11-27T12:35:50.023Z,3.84
2022-11-27T12:38:40.227Z,3.88
2022-11-27T12:41:07.960Z,3.99
2022-11-27T12:43:40.764Z,4.12
2022-11-27T12:46:20.027Z,4.07
2022-11-27T12:48:53.522Z,4.07
2022-11-27T12:51:27.828Z,4.27
2022-11-27T12:54:01.714Z,4.43
2022-11-27T12:56:38.707Z,4.50
2022-11-27T12:59:27.287Z,4.73
2022-11-27T13:02:07.543Z,4.97
2022-11-27T13:04:45.124Z,5.05
2022-11-27T13:07:20.519Z,5.21
2022-11-27T13:10:13.635Z,5.22
2022-11-27T13:13:06.051Z,5.17
2022-11-27T13:15:45.107Z,5.22
2022-11-27T13:18:20.210Z,5.38
2022-11-27T13:20:52.376Z,5.49
2022-11-27T13:23:22.912Z,5.62
2022-11-27T13:25:55.407Z,5.77
2022-11-27T13:28:37.331Z,6.00
2022-11-27T13:31:05.591Z,6.16
2022-11-27T13:33:38.969Z,6.49
2022-11-27T13:36:09.010Z,6.92
2022-11-27T13:38:41.886Z,7.03
2022-11-27T13:41:08.752Z,7.42
2022-11-27T13:43:45.311Z,7.58
2022-11-27T13:46:22.089Z,7.77
2022-11-27T13:48:53.832Z,8.10
2022-11-27T13:51:37.687Z,8.73
2022-11-27T13:54:09.454Z,9.46
2022-11-27T13:56:36.287Z,10.31
2022-11-27T13:59:15.049Z,11.32
2022-11-27T14:01:58.668Z,11.80
2022-11-27T14:04:26.894Z,11.83
2022-11-27T14:07:00.629Z,11.99
2022-11-27T14:09:48.407Z,11.85
2022-11-27T14:12:24.233Z,12.21
2022-11-27T14:15:20.452Z,12.51
2022-11-27T14:17:50.599Z,12.22
2022-11-27T14:20:17.408Z,12.48
2022-11-27T14:23:10.606Z,11.93
2022-11-27T14:25:37.203Z,11.57
2022-11-27T14:28:21.736Z,11.27
2022-11-27T14:30:51.950Z,10.93
2022-11-27T14:33:27.089Z,10.80
2022-11-27T14:35:58.963Z,10.53
2022-11-27T14:38:27.652Z,10.46
2022-11-27T14:41:07.298Z,10.42
2022-11-27T14:43:33.991Z,10.21
2022-11-27T14:46:02.930Z,10.04
2022-11-27T14:48:41.541Z,9.58
2022-11-27T14:51:14.160Z,9.08
2022-11-27T14:53:41.574Z,8.28
2022-11-27T14:56:08.722Z,7.70
2022-11-27T14:58:35.600Z,7.03
2022-11-27T15:01:06.217Z,6.55
2022-11-27T15:03:33.575Z,6.22
2022-11-27T15:06:03.202Z,6.00
2022-11-27T15:08:35.462Z,5.69
2022-11-27T15:11:04.724Z,5.45
2022-11-27T15:13:34.499Z,5.30
2022-11-27T15:16:06.067Z,5.24
2022-11-27T15:18:37.256Z,5.14
2022-11-27T15:21:11.849Z,4.94
2022-11-27T15:23:44.947Z,4.85
2022-11-27T15:26:16.961Z,4.87
2022-11-27T15:28:57.125Z,4.68
2022-11-27T15:31:33.194Z,4.54
2022-11-27T15:34:06.360Z,4.40
2022-11-27T15:36:37.960Z,4.26
2022-11-27T15:39:17.649Z,4.11
2022-11-27T15:41:54.878Z,3.96
2022-11-27T15:44:23.257Z,3.86
2022-11-27T15:46:50.827Z,3.83
2022-11-27T15:49:17.512Z,3.66
2022-11-27T15:51:44.300Z,3.56
2022-11-27T15:54:11.004Z,3.48
2022-11-27T15:56:37.797Z,3.46
2022-11-27T15:59:04.597Z,3.42
2022-11-27T16:01:31.310Z,3.33
2022-11-27T16:03:58.511Z,3.27
2022-11-27T16:06:26.287Z,3.08
2022-11-27T16:08:56.071Z,3.08
2022-11-27T16:11:24.244Z,3.06
2022-11-27T16:13:51.443Z,2.89
2022-11-27T16:16:18.824Z,2.83
2022-11-27T16:18:45.683Z,2.77
2022-11-27T16:21:14.481Z,2.78
2022-11-27T16:23:41.271Z,2.74
2022-11-27T16:26:11.257Z,2.70
2022-11-27T16:28:38.061Z,2.63
2022-11-27T16:31:09.578Z,2.61
2022-11-27T16:33:36.917Z,2.52
2022-11-27T16:36:09.537Z,2.46
2022-11-27T16:38:36.924Z,2.25
2022-11-27T16:41:06.969Z,2.28
2022-11-27T16:43:36.046Z,2.29
2022-11-27T16:46:06.775Z,2.25
2022-11-27T16:48:36.212Z,2.22
2022-11-27T16:51:04.791Z,2.09
2022-11-27T16:53:31.504Z,1.99
2022-11-27T16:55:58.292Z,1.94
2022-11-27T16:58:24.931Z,1.85
2022-11-27T17:00:52.081Z,1.76
2022-11-27T17:03:18.733Z,1.85
2022-11-27T17:05:50.126Z,1.81
2022-11-27T17:08:18.026Z,1.70
2022-11-27T17:10:45.441Z,1.59
2022-11-27T17:13:12.083Z,1.40
2022-11-27T17:15:40.756Z,1.34
2022-11-27T17:18:07.661Z,1.37
2022-11-27T17:20:34.318Z,1.48
2022-11-27T17:23:00.977Z,1.55
2022-11-27T17:25:30.904Z,1.45
2022-11-27T17:27:57.807Z,1.53
2022-11-27T17:30:24.470Z,1.54
2022-11-27T17:32:51.468Z,1.50
2022-11-27T17:35:18.078Z,1.34
2022-11-27T17:37:45.452Z,1.41
2022-11-27T17:40:13.042Z,1.45
2022-11-27T17:42:39.734Z,1.36
2022-11-27T17:45:07.354Z,1.41
2022-11-27T17:47:34.204Z,1.43
2022-11-27T17:50:00.910Z,1.41
2022-11-27T17:52:27.698Z,1.37
2022-11-27T17:54:54.429Z,1.31
2022-11-27T17:57:21.303Z,1.24
2022-11-27T17:59:49.020Z,1.27
2022-11-27T18:02:16.108Z,1.17
2022-11-27T18:04:42.756Z,1.10
2022-11-27T18:07:09.430Z,0.95
2022-11-27T18:09:37.185Z,0.97
2022-11-27T18:12:06.343Z,1.02
2022-11-27T18:14:33.312Z,1.02
2022-11-27T18:17:04.623Z,1.03
2022-11-27T18:19:31.949Z,0.91
2022-11-27T18:22:00.157Z,0.93
2022-11-27T18:24:27.311Z,0.91
2022-11-27T18:27:10.099Z,0.72
2022-11-27T18:29:38.965Z,0.55
2022-11-27T18:32:06.860Z,0.51
2022-11-27T18:34:33.929Z,0.52
2022-11-27T18:37:00.998Z,0.51
2022-11-27T18:39:27.842Z,0.52
2022-11-27T18:41:55.015Z,0.51
2022-11-27T18:44:21.609Z,0.50
2022-11-27T18:46:48.351Z,0.46
2022-11-27T18:49:14.990Z,0.36
2022-11-27T18:51:45.246Z,0.41
2022-11-27T18:54:11.916Z,0.41
2022-11-27T18:56:38.557Z,0.24
2022-11-27T18:59:06.477Z,0.27
2022-11-27T19:01:41.366Z,0.32
2022-11-27T19:04:09.165Z,0.15
2022-11-27T19:06:36.984Z,0.16
2022-11-27T19:09:04.552Z,0.15
2022-11-27T19:11:32.763Z,0.01
2022-11-27T19:13:59.760Z,-0.06
2022-11-27T19:16:31.536Z,0.08
2022-11-27T19:18:59.825Z,0.05
2022-11-27T19:21:29.147Z,0.10
2022-11-27T19:23:58.129Z,0.13
2022-11-27T19:26:27.501Z,0.13
2022-11-27T19:28:56.818Z,-0.01
2022-11-27T19:31:24.525Z,-0.04
2022-11-27T19:33:54.617Z,-0.06
2022-11-27T19:36:22.968Z,-0.20
2022-11-27T19:38:55.681Z,-0.15
2022-11-27T19:41:23.286Z,-0.10
2022-11-27T19:43:49.949Z,-0.10
2022-11-27T19:46:21.145Z,-0.05
2022-11-27T19:48:48.670Z,-0.06
2022-11-27T19:51:15.666Z,-0.25
2022-11-27T19:53:42.737Z,-0.32
2022-11-27T19:56:10.227Z,-0.53
2022-11-27T19:58:37.100Z,-0.44
2022-11-27T20:01:07.271Z,-0.37
2022-11-27T20:03:34.013Z,-0.35
2022-11-27T20:06:02.681Z,-0.36
2022-11-27T20:08:29.292Z,-0.34
2022-11-27T20:10:55.948Z,-0.31
2022-11-27T20:13:22.664Z,-0.28
2022-11-27T20:15:49.464Z,-0.47
2022-11-27T20:18:16.230Z,-0.56
2022-11-27T20:20:42.850Z,-0.46
2022-11-27T20:23:09.550Z,-0.59
2022-11-27T20:25:39.309Z,-0.65
2022-11-27T20:28:06.011Z,-0.54
2022-11-27T20:30:34.362Z,-0.63
2022-11-27T20:33:07.224Z,-0.56
2022-11-27T20:35:34.630Z,-0.50
2022-11-27T20:38:01.303Z,-0.49
2022-11-27T20:40:28.512Z,-0.51
2022-11-27T20:42:55.214Z,-0.55
2022-11-27T20:45:21.990Z,-0.52
2022-11-27T20:47:48.774Z,-0.58
2022-11-27T20:50:15.453Z,-0.54
2022-11-27T20:52:42.095Z,-0.64
2022-11-27T20:55:09.379Z,-0.57
2022-11-27T20:57:36.026Z,-0.70
2022-11-27T21:00:02.948Z,-0.75
2022-11-27T21:02:29.797Z,-0.68
2022-11-27T21:04:56.689Z,-0.66
2022-11-27T21:07:23.377Z,-0.63
2022-11-27T21:09:50.148Z,-0.65
2022-11-27T21:12:16.793Z,-0.65
2022-11-27T21:14:52.947Z,-0.63
2022-11-27T21:17:26.674Z,-0.61
2022-11-27T21:20:10.123Z,-0.59
2022-11-27T21:22:51.589Z,-0.57
2022-11-27T21:25:22.653Z,-0.70
2022-11-27T21:27:58.017Z,-0.70
2022-11-27T21:30:25.283Z,-0.75
2022-11-27T21:32:51.942Z,-0.72
2022-11-27T21:35:18.609Z,-0.76
2022-11-27T21:37:45.310Z,-0.88
2022-11-27T21:40:12.670Z,-0.76
2022-11-27T21:42:44.389Z,-0.79
2022-11-27T21:45:11.476Z,-0.76
2022-11-27T21:47:38.203Z,-0.88
2022-11-27T21:50:05.899Z,-0.74
2022-11-27T21:52:32.783Z,-0.68
2022-11-27T21:54:59.422Z,-0.69
2022-11-27T21:57:26.133Z,-0.68
2022-11-27T21:59:52.766Z,-0.74
2022-11-27T22:02:19.429Z,-0.75
2022-11-27T22:04:47.146Z,-0.89
2022-11-27T22:07:14.476Z,-0.96
2022-11-27T22:09:41.150Z,-0.96
2022-11-27T22:12:07.790Z,-0.95
2022-11-27T22:14:34.443Z,-0.91
2022-11-27T22:17:01.125Z,-0.89
2022-11-27T22:19:27.790Z,-0.86
2022-11-27T22:21:54.437Z,-0.89
2022-11-27T22:24:21.075Z,-0.86
2022-11-27T22:26:48.125Z,-0.86
2022-11-27T22:29:14.865Z,-0.89
2022-11-27T22:31:41.494Z,-1.06
2022-11-27T22:34:08.116Z,-1.15
2022-11-27T22:36:35.140Z,-1.20
2022-11-27T22:39:05.383Z,-1.26
2022-11-27T22:41:36.373Z,-1.15
2022-11-27T22:44:08.059Z,-1.27
2022-11-27T22:46:36.193Z,-1.27
2022-11-27T22:49:06.359Z,-1.12
2022-11-27T22:51:35.722Z,-1.06
2022-11-27T22:54:03.982Z,-1.05
2022-11-27T22:56:33.524Z,-1.27
2022-11-27T22:59:30.474Z,-1.21
2022-11-27T23:01:48.721Z,-1.23
2022-11-27T23:04:15.738Z,-1.20
2022-11-27T23:06:42.517Z,-1.18
2022-11-27T23:09:09.599Z,-1.23
2022-11-27T23:11:36.222Z,-1.15
2022-11-27T23:14:03.411Z,-1.14
2022-11-27T23:16:30.102Z,-1.07
2022-11-27T23:18:57.366Z,-1.03
2022-11-27T23:21:24.575Z,-1.02
2022-11-27T23:23:51.785Z,-0.99
2022-11-27T23:26:20.908Z,-1.02
2022-11-27T23:28:50.462Z,-1.03
2022-11-27T23:31:36.470Z,-1.03
2022-11-27T23:34:07.778Z,-1.02
2022-11-27T23:36:34.770Z,-1.18
2022-11-27T23:39:04.045Z,-1.16
2022-11-27T23:41:31.085Z,-1.19
2022-11-27T23:43:58.142Z,-1.09
2022-11-27T23:46:27.985Z,-1.11
2022-11-27T23:48:56.235Z,-1.07
2022-11-27T23:51:24.993Z,-1.12
2022-11-27T23:53:52.636Z,-1.31
2022-11-27T23:56:23.326Z,-1.20
2022-11-27T23:58:50.024Z,-1.37
